Aberdeen, Ohio
Current Conditions -  °F | °C
As of 7:55 AM on Thursday 23 Oct 2014 (Local Time) from KFGX Reporting Station
Clear Clear  
Wind Chill: 42°   Ceiling: Unl
Heat Index: 42°   Visibility: 7mi
Dew Point: 39°   Wind: 3mph
Humidity: 90%   Direction: 300°WNW
Pressure: 30.25"   Gusts: NA
Location:  38.66°N, 83.76°W
Report Text: KFGX 231155Z AUTO 30003KT 7SM CLR 06/04 A3025 RMK AO2 T00550040 10086 20052
Loading
Personal Weather Stations






























Interactive Weather Map
Tropical Storm Tracking
New forecast layout! Learn more

10-Day Weather Forecast

Advertisements
Track Severe Weather on mobile